EWG17R EDDS-LIPZ
Flight info
| Callsign | EWG17R |
|---|---|
| Flight time | 0h 46m |
| Altitude | 31000 |
| Route | ROTWE5B/25 ROTWE Y126 TUBLO N850 NATOR DCT TRA DCT ARGAX DCT RESIA DCT NEGIK/N0383F190 M738 ADOSA L612 ALBET |
| Aircraft | A320/M-SDE3FGHIRWY/LB1 |
Departure
| Time | 2026-02-18 13:16 |
|---|---|
| Airport | Stuttgart Airport (EDDS) |
Arrival
| Time | 2026-02-18 14:03 |
|---|---|
| Airport | Venice Marco Polo Airport (LIPZ) |
| Time | Latitude | Longitude | Altitude | Speed | Heading |
|---|---|---|---|---|---|
| 2026-02-18 12:41 | 48.68916 | 9.19588 | 1288 ft | 0 kts | 345° |
| 2026-02-18 13:03 | 48.68913 | 9.19589 | 1313 ft | 1 kts | 346° |
| 2026-02-18 13:03 | 48.68896 | 9.19595 | 1291 ft | 3 kts | 348° |
| 2026-02-18 13:03 | 48.68877 | 9.19602 | 1288 ft | 3 kts | 347° |
| 2026-02-18 13:03 | 48.68858 | 9.19605 | 1287 ft | 3 kts | 18° |
| 2026-02-18 13:04 | 48.68845 | 9.19593 | 1288 ft | 2 kts | 69° |
| 2026-02-18 13:04 | 48.68842 | 9.19578 | 1290 ft | 2 kts | 74° |
| 2026-02-18 13:04 | 48.68839 | 9.19560 | 1287 ft | 0 kts | 74° |
| 2026-02-18 13:07 | 48.68840 | 9.19568 | 1289 ft | 2 kts | 74° |
| 2026-02-18 13:07 | 48.68848 | 9.19609 | 1291 ft | 6 kts | 74° |
| 2026-02-18 13:07 | 48.68863 | 9.19688 | 1288 ft | 10 kts | 74° |
| 2026-02-18 13:08 | 48.68884 | 9.19801 | 1285 ft | 11 kts | 74° |
| 2026-02-18 13:08 | 48.68844 | 9.19887 | 1285 ft | 13 kts | 161° |
| 2026-02-18 13:08 | 48.68832 | 9.20012 | 1288 ft | 15 kts | 69° |
| 2026-02-18 13:08 | 48.68865 | 9.20183 | 1289 ft | 18 kts | 75° |
| 2026-02-18 13:09 | 48.68947 | 9.20612 | 1287 ft | 24 kts | 73° |
| 2026-02-18 13:09 | 48.68994 | 9.20865 | 1288 ft | 26 kts | 74° |
| 2026-02-18 13:09 | 48.69046 | 9.21140 | 1285 ft | 28 kts | 74° |
| 2026-02-18 13:10 | 48.69104 | 9.21434 | 1285 ft | 30 kts | 74° |
| 2026-02-18 13:10 | 48.69162 | 9.21748 | 1288 ft | 32 kts | 74° |
| 2026-02-18 13:10 | 48.69225 | 9.22079 | 1289 ft | 33 kts | 74° |
| 2026-02-18 13:10 | 48.69290 | 9.22426 | 1286 ft | 35 kts | 73° |
| 2026-02-18 13:11 | 48.69359 | 9.22788 | 1286 ft | 37 kts | 74° |
| 2026-02-18 13:11 | 48.69431 | 9.23165 | 1287 ft | 38 kts | 74° |
| 2026-02-18 13:11 | 48.69500 | 9.23532 | 1288 ft | 29 kts | 73° |
| 2026-02-18 13:11 | 48.69545 | 9.23767 | 1287 ft | 19 kts | 74° |
| 2026-02-18 13:12 | 48.69579 | 9.23943 | 1286 ft | 18 kts | 74° |
| 2026-02-18 13:12 | 48.69609 | 9.24107 | 1287 ft | 11 kts | 76° |
| 2026-02-18 13:12 | 48.69585 | 9.24224 | 1287 ft | 12 kts | 117° |
| 2026-02-18 13:12 | 48.69545 | 9.24293 | 1285 ft | 10 kts | 153° |
| 2026-02-18 13:13 | 48.69499 | 9.24315 | 1288 ft | 0 kts | 163° |
| 2026-02-18 13:14 | 48.69495 | 9.24316 | 1287 ft | 2 kts | 163° |
| 2026-02-18 13:14 | 48.69471 | 9.24327 | 1288 ft | 5 kts | 163° |
| 2026-02-18 13:14 | 48.69429 | 9.24337 | 1287 ft | 7 kts | 186° |
| 2026-02-18 13:14 | 48.69383 | 9.24278 | 1286 ft | 10 kts | 244° |
| 2026-02-18 13:15 | 48.69378 | 9.24252 | 1288 ft | 0 kts | 253° |
| 2026-02-18 13:15 | 48.69369 | 9.24206 | 1285 ft | 24 kts | 254° |
| 2026-02-18 13:16 | 48.69247 | 9.23570 | 1289 ft | 99 kts | 253° |
| 2026-02-18 13:16 | 48.69001 | 9.22275 | 1286 ft | 154 kts | 254° |
| 2026-02-18 13:16 | 48.68676 | 9.20582 | 1664 ft | 169 kts | 255° |
| 2026-02-18 13:16 | 48.68366 | 9.18892 | 2482 ft | 165 kts | 253° |
| 2026-02-18 13:17 | 48.67722 | 9.15395 | 3561 ft | 191 kts | 251° |
| 2026-02-18 13:17 | 48.67332 | 9.13332 | 3919 ft | 217 kts | 251° |
| 2026-02-18 13:17 | 48.66891 | 9.11019 | 4409 ft | 241 kts | 251° |
| 2026-02-18 13:18 | 48.66407 | 9.08480 | 5139 ft | 257 kts | 251° |
| 2026-02-18 13:18 | 48.65908 | 9.05866 | 6186 ft | 259 kts | 252° |
| 2026-02-18 13:18 | 48.65404 | 9.03245 | 7240 ft | 260 kts | 253° |
| 2026-02-18 13:18 | 48.64899 | 9.00623 | 8291 ft | 260 kts | 253° |
| 2026-02-18 13:19 | 48.64388 | 8.97990 | 9331 ft | 261 kts | 254° |
| 2026-02-18 13:19 | 48.63873 | 8.95336 | 10192 ft | 268 kts | 254° |
| 2026-02-18 13:19 | 48.63323 | 8.92516 | 10501 ft | 292 kts | 254° |
| 2026-02-18 13:19 | 48.62726 | 8.89462 | 10790 ft | 312 kts | 255° |
| 2026-02-18 13:20 | 48.62019 | 8.86303 | 11423 ft | 321 kts | 248° |
| 2026-02-18 13:20 | 48.60894 | 8.83348 | 12193 ft | 328 kts | 237° |
| 2026-02-18 13:20 | 48.59406 | 8.80746 | 12957 ft | 333 kts | 231° |
| 2026-02-18 13:20 | 48.57807 | 8.78119 | 13667 ft | 337 kts | 232° |
| 2026-02-18 13:21 | 48.54607 | 8.72859 | 14954 ft | 343 kts | 232° |
| 2026-02-18 13:21 | 48.52990 | 8.70179 | 15599 ft | 346 kts | 235° |
| 2026-02-18 13:21 | 48.51643 | 8.67255 | 16216 ft | 344 kts | 246° |
| 2026-02-18 13:22 | 48.50699 | 8.63955 | 16838 ft | 343 kts | 256° |
| 2026-02-18 13:22 | 48.50062 | 8.60465 | 17507 ft | 346 kts | 258° |
| 2026-02-18 13:22 | 48.49425 | 8.56949 | 18197 ft | 350 kts | 258° |
| 2026-02-18 13:22 | 48.48772 | 8.53406 | 18831 ft | 352 kts | 258° |
| 2026-02-18 13:23 | 48.48058 | 8.49856 | 19509 ft | 357 kts | 253° |
| 2026-02-18 13:23 | 48.46891 | 8.46503 | 20206 ft | 366 kts | 241° |
| 2026-02-18 13:23 | 48.45201 | 8.43561 | 20878 ft | 378 kts | 229° |
| 2026-02-18 13:23 | 48.43024 | 8.41229 | 21492 ft | 392 kts | 216° |
| 2026-02-18 13:24 | 48.40474 | 8.39618 | 22082 ft | 404 kts | 206° |
| 2026-02-18 13:24 | 48.37703 | 8.38620 | 22669 ft | 413 kts | 200° |
| 2026-02-18 13:24 | 48.34882 | 8.37757 | 23236 ft | 415 kts | 200° |
| 2026-02-18 13:24 | 48.32045 | 8.36872 | 23739 ft | 418 kts | 200° |
| 2026-02-18 13:25 | 48.26282 | 8.35051 | 24619 ft | 423 kts | 200° |
| 2026-02-18 13:25 | 48.23390 | 8.34131 | 25023 ft | 426 kts | 200° |
| 2026-02-18 13:25 | 48.20479 | 8.33207 | 25433 ft | 429 kts | 200° |
| 2026-02-18 13:26 | 48.17518 | 8.32607 | 25814 ft | 442 kts | 191° |
| 2026-02-18 13:26 | 48.14395 | 8.32748 | 26195 ft | 456 kts | 181° |
| 2026-02-18 13:26 | 48.11234 | 8.33496 | 26553 ft | 462 kts | 178° |
| 2026-02-18 13:26 | 48.08049 | 8.34287 | 26935 ft | 465 kts | 178° |
| 2026-02-18 13:27 | 48.04848 | 8.35073 | 27305 ft | 468 kts | 179° |
| 2026-02-18 13:27 | 48.01627 | 8.35853 | 27660 ft | 471 kts | 179° |
| 2026-02-18 13:27 | 47.98378 | 8.36634 | 28039 ft | 474 kts | 179° |
| 2026-02-18 13:27 | 47.95110 | 8.37419 | 28400 ft | 477 kts | 179° |
| 2026-02-18 13:28 | 47.91828 | 8.38209 | 28727 ft | 479 kts | 179° |
| 2026-02-18 13:28 | 47.88517 | 8.39005 | 29086 ft | 483 kts | 179° |
| 2026-02-18 13:28 | 47.85198 | 8.39803 | 29425 ft | 485 kts | 179° |
| 2026-02-18 13:28 | 47.81852 | 8.40608 | 29755 ft | 488 kts | 179° |
| 2026-02-18 13:29 | 47.75153 | 8.42228 | 30588 ft | 488 kts | 178° |
| 2026-02-18 13:29 | 47.71837 | 8.43478 | 30879 ft | 498 kts | 168° |
| 2026-02-18 13:30 | 47.65643 | 8.48373 | 30927 ft | 513 kts | 147° |
| 2026-02-18 13:30 | 47.61214 | 8.54285 | 30924 ft | 517 kts | 141° |
| 2026-02-18 13:31 | 47.55927 | 8.61522 | 30923 ft | 517 kts | 141° |
| 2026-02-18 13:31 | 47.50623 | 8.68694 | 30921 ft | 517 kts | 142° |
| 2026-02-18 13:32 | 47.45312 | 8.75865 | 30890 ft | 517 kts | 141° |
| 2026-02-18 13:32 | 47.40001 | 8.83034 | 30916 ft | 517 kts | 141° |
| 2026-02-18 13:33 | 47.32022 | 8.93780 | 30915 ft | 517 kts | 141° |
| 2026-02-18 13:33 | 47.26706 | 9.00925 | 30915 ft | 517 kts | 141° |
| 2026-02-18 13:34 | 47.21405 | 9.08016 | 30890 ft | 517 kts | 141° |
| 2026-02-18 13:34 | 47.16038 | 9.15170 | 30913 ft | 518 kts | 141° |
| 2026-02-18 13:35 | 47.10692 | 9.22265 | 30916 ft | 518 kts | 142° |
| 2026-02-18 13:35 | 47.05329 | 9.29356 | 30919 ft | 519 kts | 141° |
| 2026-02-18 13:36 | 46.99978 | 9.36442 | 30896 ft | 519 kts | 141° |
| 2026-02-18 13:36 | 46.94621 | 9.43516 | 30887 ft | 518 kts | 141° |
| 2026-02-18 13:37 | 46.86563 | 9.54091 | 30878 ft | 519 kts | 142° |
| 2026-02-18 13:38 | 46.81177 | 9.61127 | 30883 ft | 519 kts | 142° |
| 2026-02-18 13:38 | 46.75821 | 9.68115 | 30832 ft | 518 kts | 142° |
| 2026-02-18 13:39 | 46.70440 | 9.75125 | 30869 ft | 518 kts | 142° |
| 2026-02-18 13:39 | 46.65061 | 9.82113 | 30873 ft | 518 kts | 142° |
| 2026-02-18 13:40 | 46.59667 | 9.89079 | 30873 ft | 518 kts | 142° |
| 2026-02-18 13:40 | 46.54272 | 9.96036 | 30867 ft | 519 kts | 142° |
| 2026-02-18 13:41 | 46.46192 | 10.06478 | 30854 ft | 519 kts | 141° |
| 2026-02-18 13:41 | 46.41009 | 10.13776 | 30861 ft | 520 kts | 137° |
| 2026-02-18 13:42 | 46.35939 | 10.21253 | 30860 ft | 520 kts | 137° |
| 2026-02-18 13:42 | 46.30829 | 10.28658 | 30859 ft | 519 kts | 139° |
| 2026-02-18 13:43 | 46.25646 | 10.35960 | 30866 ft | 519 kts | 139° |
| 2026-02-18 13:43 | 46.20498 | 10.43169 | 30853 ft | 519 kts | 139° |
| 2026-02-18 13:44 | 46.15327 | 10.50445 | 30858 ft | 519 kts | 139° |
| 2026-02-18 13:44 | 46.10162 | 10.57717 | 30839 ft | 519 kts | 139° |
| 2026-02-18 13:45 | 46.02410 | 10.68607 | 30795 ft | 519 kts | 139° |
| 2026-02-18 13:45 | 45.99819 | 10.72225 | 30553 ft | 519 kts | 139° |
| 2026-02-18 13:46 | 45.97234 | 10.75827 | 29696 ft | 520 kts | 139° |
| 2026-02-18 13:46 | 45.94634 | 10.79446 | 28122 ft | 519 kts | 139° |
| 2026-02-18 13:46 | 45.92059 | 10.83030 | 26806 ft | 510 kts | 139° |
| 2026-02-18 13:46 | 45.89563 | 10.86501 | 26143 ft | 488 kts | 139° |
| 2026-02-18 13:47 | 45.87161 | 10.89838 | 25331 ft | 475 kts | 139° |
| 2026-02-18 13:47 | 45.84720 | 10.92958 | 24562 ft | 468 kts | 146° |
| 2026-02-18 13:47 | 45.82028 | 10.95531 | 23863 ft | 461 kts | 155° |
| 2026-02-18 13:47 | 45.79166 | 10.97522 | 23141 ft | 453 kts | 164° |
| 2026-02-18 13:48 | 45.76201 | 10.98903 | 22423 ft | 443 kts | 172° |
| 2026-02-18 13:48 | 45.73209 | 10.99868 | 21742 ft | 439 kts | 173° |
| 2026-02-18 13:48 | 45.70235 | 11.00903 | 21077 ft | 441 kts | 168° |
| 2026-02-18 13:48 | 45.67375 | 11.02561 | 20427 ft | 445 kts | 156° |
| 2026-02-18 13:49 | 45.62433 | 11.07905 | 19129 ft | 449 kts | 134° |
| 2026-02-18 13:49 | 45.60514 | 11.11399 | 18519 ft | 447 kts | 124° |
| 2026-02-18 13:49 | 45.58840 | 11.15124 | 17823 ft | 445 kts | 123° |
| 2026-02-18 13:50 | 45.57175 | 11.18827 | 17206 ft | 441 kts | 123° |
| 2026-02-18 13:50 | 45.55542 | 11.22452 | 16570 ft | 437 kts | 123° |
| 2026-02-18 13:50 | 45.53902 | 11.26092 | 15906 ft | 435 kts | 123° |
| 2026-02-18 13:50 | 45.52274 | 11.29698 | 15241 ft | 431 kts | 123° |
| 2026-02-18 13:51 | 45.50651 | 11.33290 | 14561 ft | 429 kts | 123° |
| 2026-02-18 13:51 | 45.49015 | 11.36906 | 13836 ft | 428 kts | 123° |
| 2026-02-18 13:51 | 45.47433 | 11.40408 | 13279 ft | 420 kts | 123° |
| 2026-02-18 13:51 | 45.45882 | 11.43839 | 13135 ft | 401 kts | 124° |
| 2026-02-18 13:52 | 45.44408 | 11.47094 | 13002 ft | 380 kts | 124° |
| 2026-02-18 13:52 | 45.43013 | 11.50158 | 12552 ft | 361 kts | 126° |
| 2026-02-18 13:52 | 45.41448 | 11.52854 | 12270 ft | 350 kts | 135° |
| 2026-02-18 13:52 | 45.39822 | 11.55417 | 12015 ft | 348 kts | 134° |
| 2026-02-18 13:53 | 45.36631 | 11.60525 | 11486 ft | 343 kts | 130° |
| 2026-02-18 13:53 | 45.34683 | 11.66649 | 10992 ft | 342 kts | 101° |
| 2026-02-18 13:54 | 45.34523 | 11.70016 | 10805 ft | 342 kts | 86° |
| 2026-02-18 13:54 | 45.34677 | 11.73382 | 10513 ft | 341 kts | 85° |
| 2026-02-18 13:54 | 45.34833 | 11.76738 | 10202 ft | 339 kts | 85° |
| 2026-02-18 13:55 | 45.34494 | 11.83134 | 9894 ft | 316 kts | 112° |
| 2026-02-18 13:55 | 45.33698 | 11.86008 | 9405 ft | 309 kts | 114° |
| 2026-02-18 13:55 | 45.32893 | 11.88823 | 8772 ft | 305 kts | 114° |
| 2026-02-18 13:55 | 45.32089 | 11.91585 | 8183 ft | 300 kts | 115° |
| 2026-02-18 13:56 | 45.31290 | 11.94309 | 7592 ft | 296 kts | 115° |
| 2026-02-18 13:56 | 45.30502 | 11.96984 | 7024 ft | 291 kts | 115° |
| 2026-02-18 13:56 | 45.29740 | 11.99578 | 6769 ft | 275 kts | 115° |
| 2026-02-18 13:56 | 45.29029 | 12.02007 | 6606 ft | 258 kts | 115° |
| 2026-02-18 13:57 | 45.28868 | 12.06913 | 5394 ft | 261 kts | 63° |
| 2026-02-18 13:57 | 45.29963 | 12.08935 | 4758 ft | 260 kts | 40° |
| 2026-02-18 13:57 | 45.31317 | 12.10650 | 4097 ft | 262 kts | 40° |
| 2026-02-18 13:58 | 45.32680 | 12.12372 | 3449 ft | 263 kts | 42° |
| 2026-02-18 13:58 | 45.34034 | 12.14091 | 3059 ft | 253 kts | 42° |
| 2026-02-18 13:58 | 45.35288 | 12.15690 | 3002 ft | 229 kts | 43° |
| 2026-02-18 13:58 | 45.36413 | 12.17125 | 3003 ft | 207 kts | 43° |
| 2026-02-18 13:59 | 45.37444 | 12.18441 | 3019 ft | 192 kts | 44° |
| 2026-02-18 13:59 | 45.38414 | 12.19681 | 2941 ft | 185 kts | 43° |
| 2026-02-18 13:59 | 45.39362 | 12.20893 | 2719 ft | 181 kts | 43° |
| 2026-02-18 13:59 | 45.40285 | 12.22073 | 2477 ft | 176 kts | 43° |
| 2026-02-18 14:00 | 45.41184 | 12.23223 | 2230 ft | 172 kts | 44° |
| 2026-02-18 14:00 | 45.42064 | 12.24349 | 2008 ft | 168 kts | 44° |
| 2026-02-18 14:00 | 45.42930 | 12.25458 | 1779 ft | 166 kts | 44° |
| 2026-02-18 14:00 | 45.43782 | 12.26548 | 1553 ft | 163 kts | 44° |
| 2026-02-18 14:01 | 45.45362 | 12.28572 | 1118 ft | 141 kts | 43° |
| 2026-02-18 14:01 | 45.46068 | 12.29476 | 943 ft | 133 kts | 44° |
| 2026-02-18 14:01 | 45.46757 | 12.30344 | 748 ft | 132 kts | 43° |
| 2026-02-18 14:02 | 45.47442 | 12.31221 | 574 ft | 132 kts | 45° |
| 2026-02-18 14:02 | 45.48114 | 12.32113 | 392 ft | 132 kts | 44° |
| 2026-02-18 14:02 | 45.48804 | 12.32978 | 222 ft | 132 kts | 44° |
| 2026-02-18 14:02 | 45.49484 | 12.33869 | 52 ft | 133 kts | 44° |
| 2026-02-18 14:03 | 45.50123 | 12.34689 | 18 ft | 107 kts | 41° |
| 2026-02-18 14:03 | 45.50549 | 12.35240 | 13 ft | 58 kts | 41° |
| 2026-02-18 14:03 | 45.50811 | 12.35564 | 19 ft | 45 kts | 40° |
| 2026-02-18 14:03 | 45.51039 | 12.35862 | 15 ft | 45 kts | 42° |
| 2026-02-18 14:04 | 45.51180 | 12.36034 | 13 ft | 13 kts | 26° |
| 2026-02-18 14:04 | 45.51265 | 12.36015 | 14 ft | 15 kts | 319° |
| 2026-02-18 14:04 | 45.51319 | 12.35936 | 13 ft | 9 kts | 302° |
| 2026-02-18 14:04 | 45.51302 | 12.35852 | 13 ft | 12 kts | 223° |
| 2026-02-18 14:05 | 45.51137 | 12.35641 | 15 ft | 19 kts | 222° |
| 2026-02-18 14:05 | 45.51044 | 12.35522 | 16 ft | 17 kts | 223° |
| 2026-02-18 14:05 | 45.50982 | 12.35380 | 19 ft | 18 kts | 257° |
| 2026-02-18 14:06 | 45.50948 | 12.35205 | 21 ft | 15 kts | 242° |
| 2026-02-18 14:06 | 45.50876 | 12.35102 | 19 ft | 16 kts | 221° |
| 2026-02-18 14:06 | 45.50776 | 12.34976 | 17 ft | 22 kts | 221° |
| 2026-02-18 14:06 | 45.50653 | 12.34817 | 15 ft | 26 kts | 222° |
| 2026-02-18 14:07 | 45.50511 | 12.34637 | 18 ft | 28 kts | 221° |
| 2026-02-18 14:07 | 45.50394 | 12.34486 | 19 ft | 10 kts | 223° |
| 2026-02-18 14:07 | 45.50368 | 12.34453 | 20 ft | 5 kts | 222° |
| 2026-02-18 14:07 | 45.50349 | 12.34406 | 21 ft | 6 kts | 260° |
| 2026-02-18 14:08 | 45.50378 | 12.34349 | 20 ft | 10 kts | 339° |
| 2026-02-18 14:08 | 45.50464 | 12.34341 | 19 ft | 13 kts | 357° |
| 2026-02-18 14:08 | 45.50552 | 12.34335 | 16 ft | 15 kts | 357° |
| 2026-02-18 14:08 | 45.50615 | 12.34308 | 15 ft | 7 kts | 278° |
| 2026-02-18 14:09 | 45.50645 | 12.34219 | 15 ft | 8 kts | 304° |
| 2026-02-18 14:09 | 45.50667 | 12.34165 | 15 ft | 4 kts | 276° |
| 2026-02-18 14:09 | 45.50657 | 12.34142 | 16 ft | 2 kts | 228° |
| 2026-02-18 14:10 | 45.50645 | 12.34125 | 16 ft | 1 kts | 226° |
| 2026-02-18 14:10 | 45.50644 | 12.34123 | 16 ft | 0 kts | 226° |